ロングイェールビーン の空港の天気 - METARとTAF

スヴァールバル空港 ( ENSB / LYR ) - スヴァールバル諸島・ヤンマイエン島 ロングイェールビーン
飛行場実況気象(Metar)
観測時間02/26 11:50 CET (02/26 10:50 UTC)
風向・風速東南東 3m/s
視程10km以上
天気現象
なし
気温-15℃
湿度72%
気圧1019hPa
METARENSB 261050Z 11005KT CAVOK M15/M19 Q1019 RMK WIND 1400FT 05006KT
過去の天気等 Google飛行場航空写真 Wunderground天気予報

過去48時間のMETAR

飛行場予報(TAF)
発表時間: -
TAF ENSB 2612/2712 12008KT 9999 FEW020